Time;durP1;ratioP1;P1;durP2;ratioP2;P2;SDS_P1;SDS_P2;PMS_P1;PMS_P2;Temp;Humidity;BMP_temperature;BMP_pressure;BME280_temperature;BME280_humidity;BME280_pressure;Samples;Min_cycle;Max_cycle;Signal;HPM_P1;HPM_P2
2022/01/24 00:01:16;;;;;;;12.88;5.43;;;;;;;-3.32;74.44;100895.97;5066909;28;20039;-21
2022/01/24 00:03:41;;;;;;;10.02;4.53;;;;;;;-3.39;75.00;100942.53;5066930;28;20036;-21
2022/01/24 00:06:10;;;;;;;9.07;4.10;;;;;;;-3.56;75.33;100948.06;5066288;28;20025;-21
2022/01/24 00:08:36;;;;;;;11.25;5.07;;;;;;;-3.69;75.89;100961.94;5066724;28;20073;-23
2022/01/24 00:11:06;;;;;;;8.88;4.85;;;;;;;-3.57;75.46;100954.25;5066623;28;20092;-21
2022/01/24 00:16:21;;;;;;;11.27;4.88;;;;;;;-3.47;72.92;100965.69;5066690;28;20025;-21
2022/01/24 00:26:53;;;;;;;11.27;5.22;;;;;;;-3.85;73.78;100946.50;5065012;28;20051;-21
2022/01/24 00:29:22;;;;;;;12.55;5.20;;;;;;;-3.71;72.48;100963.81;5066632;28;20071;-21
2022/01/24 00:31:47;;;;;;;11.60;5.35;;;;;;;-4.37;73.16;100968.22;5064875;28;20032;-21
2022/01/24 00:34:14;;;;;;;10.63;5.20;;;;;;;-4.47;74.07;100983.63;5066205;28;20040;-22
2022/01/24 00:36:40;;;;;;;12.98;6.07;;;;;;;-4.70;75.66;100979.03;5065186;28;20040;-21
2022/01/24 00:39:06;;;;;;;13.35;5.88;;;;;;;-4.93;75.25;100972.69;5064882;28;20127;-21
2022/01/24 00:41:51;;;;;;;10.85;5.78;;;;;;;-4.91;74.06;100971.66;5064848;28;20475;-20
2022/01/24 00:47:04;;;;;;;11.98;4.88;;;;;;;-5.20;76.94;100970.06;5066353;28;20067;-21
2022/01/24 00:54:52;;;;;;;12.75;4.93;;;;;;;-4.76;76.23;100979.44;5064248;28;20039;-22
2022/01/24 00:57:19;;;;;;;10.73;4.50;;;;;;;-5.06;75.65;100988.25;5066046;28;20033;-21
2022/01/24 00:59:44;;;;;;;13.32;5.63;;;;;;;-5.28;76.59;100973.13;5066534;28;20614;-21
2022/01/24 01:02:10;;;;;;;9.93;4.93;;;;;;;-5.14;76.29;100969.69;5069574;28;20070;-21
2022/01/24 01:07:09;;;;;;;14.75;5.80;;;;;;;-5.00;75.72;100987.84;5069705;28;20040;-21
2022/01/24 01:20:42;;;;;;;65.68;39.10;;;;;;;-4.73;73.20;101020.88;5069320;28;20194;-21
2022/01/24 01:23:07;;;;;;;38.75;24.77;;;;;;;-4.90;71.12;101025.38;5069255;28;20110;-22
2022/01/24 01:25:33;;;;;;;10.85;5.95;;;;;;;-5.29;73.93;101018.25;5069126;28;20060;-21
2022/01/24 01:27:58;;;;;;;15.88;9.15;;;;;;;-5.13;75.90;101031.16;5069013;28;20028;-21
2022/01/24 01:30:35;;;;;;;29.90;16.83;;;;;;;-5.46;75.97;101027.06;5069403;28;20043;-21
2022/01/24 01:33:12;;;;;;;28.92;17.42;;;;;;;-5.66;77.16;101038.63;5069080;28;20522;-21
2022/01/24 01:38:29;;;;;;;32.40;17.40;;;;;;;-5.88;76.25;101020.91;5068931;28;20055;-21
2022/01/24 01:56:56;;;;;;;13.50;5.03;;;;;;;-5.76;74.52;101038.38;5067668;28;20024;-21
2022/01/24 01:59:22;;;;;;;12.65;4.60;;;;;;;-5.43;73.81;101021.69;5050928;28;20107;-21
2022/01/24 02:01:47;;;;;;;11.80;5.22;;;;;;;-5.34;74.52;101015.09;5069005;28;20041;-21
2022/01/24 02:04:14;;;;;;;13.77;5.10;;;;;;;-5.14;72.46;101027.72;5069113;28;20032;-22
2022/01/24 02:06:40;;;;;;;12.13;4.80;;;;;;;-5.76;72.28;101027.13;5068361;28;20116;-21
2022/01/24 02:09:10;;;;;;;9.45;4.15;;;;;;;-6.13;67.87;101034.47;5068681;28;20075;-21
2022/01/24 02:11:36;;;;;;;11.75;4.85;;;;;;;-7.15;67.13;101005.50;5066797;28;20093;-22
2022/01/24 02:14:09;;;;;;;11.68;4.60;;;;;;;-7.25;68.38;101036.25;5068356;28;20032;-21
2022/01/24 02:16:53;;;;;;;13.85;5.22;;;;;;;-6.79;69.52;101032.97;5067159;28;20507;-21
2022/01/24 02:20:09;;;;;;;13.35;5.22;;;;;;;-6.71;71.88;101035.97;5066976;28;20101;-21
2022/01/24 02:22:38;;;;;;;11.35;5.45;;;;;;;-6.06;71.37;101048.78;5062289;28;20411;-21
2022/01/24 02:24:59;;;;;;;14.57;6.57;;;;;;;-6.42;70.44;101044.72;5067692;28;20593;-21
2022/01/24 02:27:27;;;;;;;15.77;6.53;;;;;;;-6.60;70.55;101049.19;5067109;28;20062;-21
2022/01/24 02:30:09;;;;;;;;;;;;;;;-6.34;70.52;101057.28;5068414;28;20035;-21
2022/01/24 02:32:39;;;;;;;293.25;120.97;;;;;;;-6.49;69.44;101027.84;5068414;28;19916;-21
2022/01/24 02:35:05;;;;;;;61.80;27.27;;;;;;;-6.26;69.88;101042.13;5067951;28;20024;-22
2022/01/24 02:37:30;;;;;;;43.60;16.90;;;;;;;-6.35;70.17;101050.44;5066717;28;20032;-21
2022/01/24 02:40:13;;;;;;;25.00;12.10;;;;;;;-5.97;70.30;101069.03;5067820;28;20028;-22
2022/01/24 02:48:30;;;;;;;44.50;18.73;;;;;;;-5.17;69.26;101082.53;5067954;28;20035;-22
2022/01/24 02:53:27;;;;;;;62.85;36.72;;;;;;;-4.97;71.16;101111.69;5067753;28;20107;-22
2022/01/24 02:55:52;;;;;;;68.50;38.58;;;;;;;-5.11;72.38;101094.31;5067523;28;20028;-21
2022/01/24 02:58:19;;;;;;;123.68;72.65;;;;;;;-5.31;73.56;101098.09;5067791;28;20033;-21
2022/01/24 03:00:48;;;;;;;52.35;32.65;;;;;;;-5.21;73.86;101096.66;5067542;28;20098;-22
2022/01/24 03:03:14;;;;;;;89.03;54.90;;;;;;;-5.06;73.12;101118.28;5067213;28;20480;-22
2022/01/24 03:05:39;;;;;;;45.63;27.67;;;;;;;-5.19;74.50;101127.75;5067534;28;20028;-21
2022/01/24 03:08:06;;;;;;;46.95;26.50;;;;;;;-5.33;75.42;101100.81;5067266;28;20037;-21
2022/01/24 03:10:38;;;;;;;24.52;12.52;;;;;;;-5.15;74.92;101114.50;5067536;28;20028;-21
2022/01/24 03:13:18;;;;;;;21.05;10.52;;;;;;;-5.02;75.16;101117.19;5067533;28;20488;-21
2022/01/24 03:15:48;;;;;;;17.77;9.00;;;;;;;-5.77;73.95;101088.63;5067132;28;20032;-21
2022/01/24 03:18:14;;;;;;;20.38;9.57;;;;;;;-5.35;71.80;101097.47;5066111;28;20101;-23
2022/01/24 03:20:39;;;;;;;21.13;10.07;;;;;;;-5.85;71.76;101125.44;5067027;28;20029;-21
2022/01/24 03:23:05;;;;;;;23.42;12.65;;;;;;;-5.58;71.13;101122.19;5066408;28;20032;-21
2022/01/24 03:25:30;;;;;;;21.73;11.43;;;;;;;-5.72;69.75;101097.03;5067233;28;20060;-22
2022/01/24 03:27:56;;;;;;;21.75;11.18;;;;;;;-5.76;72.03;101128.44;5067044;28;20029;-22
2022/01/24 03:30:22;;;;;;;21.13;10.10;;;;;;;-5.95;71.55;101110.50;5066830;28;20758;-21
2022/01/24 03:32:47;;;;;;;19.15;9.05;;;;;;;-6.34;73.79;101124.78;5067235;28;20020;-21
2022/01/24 03:35:13;;;;;;;17.38;8.00;;;;;;;-6.56;75.98;101101.75;5067242;28;20036;-22
2022/01/24 03:37:38;;;;;;;16.55;7.93;;;;;;;-5.93;75.68;101126.81;5067072;28;20408;-21
2022/01/24 03:40:04;;;;;;;14.88;6.53;;;;;;;-5.67;74.85;101144.34;5066875;28;20039;-21
2022/01/24 03:42:30;;;;;;;33.05;16.25;;;;;;;-5.88;74.62;101114.41;5065500;28;20107;-20
2022/01/24 03:44:59;;;;;;;20.55;10.60;;;;;;;-5.71;74.50;101136.81;5067103;28;20040;-22
2022/01/24 03:47:44;;;;;;;28.67;13.60;;;;;;;-5.57;73.57;101142.06;5066967;28;20028;-21
2022/01/24 03:50:17;;;;;;;19.98;9.65;;;;;;;-6.34;74.09;101119.59;5067128;28;20427;-21
2022/01/24 03:52:43;;;;;;;18.23;9.45;;;;;;;-5.92;73.88;101133.69;5065861;28;20090;-21
2022/01/24 03:55:09;;;;;;;16.73;8.57;;;;;;;-5.80;73.05;101143.38;5065667;28;20044;-21
2022/01/24 03:57:34;;;;;;;18.02;8.55;;;;;;;-6.10;72.35;101115.63;5067205;28;20029;-22
2022/01/24 04:00:00;;;;;;;65.32;30.38;;;;;;;-6.18;73.71;101143.78;5067146;28;20033;-22
2022/01/24 04:02:26;;;;;;;71.70;35.40;;;;;;;-5.82;72.94;101129.66;5065338;28;20024;-21
2022/01/24 04:04:52;;;;;;;32.10;16.02;;;;;;;-5.94;72.81;101119.94;5066933;28;20119;-21
2022/01/24 04:07:17;;;;;;;54.63;29.05;;;;;;;-5.80;71.95;101132.13;5065200;28;20024;-21
2022/01/24 04:09:43;;;;;;;61.92;31.33;;;;;;;-5.63;70.34;101129.44;5065108;28;20476;-22
2022/01/24 04:12:09;;;;;;;75.97;34.58;;;;;;;-5.97;72.09;101133.97;5066987;28;20111;-21
2022/01/24 04:14:43;;;;;;;64.47;28.00;;;;;;;-6.21;73.46;101143.97;5066933;28;20029;-21
2022/01/24 04:22:12;;;;;;;18.55;9.80;;;;;;;-7.14;75.50;101140.22;5066876;28;20454;-22
2022/01/24 04:24:38;;;;;;;28.92;12.93;;;;;;;-6.75;75.28;101169.34;5066463;28;20048;-20
2022/01/24 04:27:03;;;;;;;20.50;9.35;;;;;;;-6.64;73.50;101161.84;5066782;28;20616;-21
2022/01/24 04:29:29;;;;;;;21.73;9.70;;;;;;;-6.27;72.64;101159.88;5065417;28;20043;-21
2022/01/24 04:31:54;;;;;;;21.55;7.78;;;;;;;-6.14;71.62;101170.44;5066432;28;20093;-21
2022/01/24 04:34:20;;;;;;;34.95;18.02;;;;;;;-5.90;69.19;101163.00;5066664;28;20040;-21
2022/01/24 04:36:45;;;;;;;26.70;11.60;;;;;;;-6.22;69.63;101181.22;5070176;28;20033;-21
2022/01/24 04:39:11;;;;;;;36.22;18.63;;;;;;;-6.17;68.95;101140.28;5070674;28;20036;-21
2022/01/24 04:41:43;;;;;;;34.80;20.48;;;;;;;-6.46;69.14;101170.41;5070236;28;20036;-21
2022/01/24 04:46:51;;;;;;;30.95;13.52;;;;;;;-6.64;69.64;101182.59;5068846;28;20408;-21
2022/01/24 04:54:46;;;;;;;32.05;14.93;;;;;;;-6.50;67.91;101198.28;5069000;28;20035;-21
2022/01/24 04:57:13;;;;;;;72.57;41.58;;;;;;;-6.85;68.93;101194.94;5069953;28;20029;-21
2022/01/24 04:59:39;;;;;;;137.70;66.20;;;;;;;-7.15;69.73;101202.50;5069444;28;20443;-21
2022/01/24 05:02:05;;;;;;;42.75;21.60;;;;;;;-7.41;68.74;101207.25;5068506;28;20105;-22
2022/01/24 05:04:30;;;;;;;37.60;17.33;;;;;;;-8.03;70.93;101219.66;5069493;28;20062;-21
2022/01/24 05:06:56;;;;;;;50.85;16.25;;;;;;;-7.63;72.71;101227.34;5069601;28;20029;-21
2022/01/24 05:09:22;;;;;;;99.45;14.57;;;;;;;-7.50;74.05;101231.00;5068313;28;20119;-22
2022/01/24 05:11:53;;;;;;;27.70;9.90;;;;;;;-6.94;71.92;101235.16;5069370;28;20110;-23
2022/01/24 05:25:15;;;;;;;20.10;9.13;;;;;;;-6.45;71.41;101233.53;5068919;28;20075;-22
2022/01/24 05:27:41;;;;;;;20.95;9.32;;;;;;;-6.07;71.42;101254.84;5069339;28;20480;-21
2022/01/24 05:30:06;;;;;;;14.57;6.95;;;;;;;-6.15;72.53;101251.84;5068890;28;20032;-21
2022/01/24 05:32:32;;;;;;;18.83;7.97;;;;;;;-6.28;71.24;101246.47;5069172;28;20028;-21
2022/01/24 05:34:57;;;;;;;26.10;12.38;;;;;;;-6.96;72.60;101247.34;5067400;28;20115;-21
2022/01/24 05:37:23;;;;;;;31.70;13.73;;;;;;;-7.61;73.01;101251.41;5068808;28;20040;-21
2022/01/24 05:39:48;;;;;;;76.90;41.25;;;;;;;-7.55;74.17;101257.13;5068543;28;20039;-21
2022/01/24 05:42:17;;;;;;;66.82;33.13;;;;;;;-7.25;74.75;101237.56;5068831;28;20058;-22
2022/01/24 05:44:42;;;;;;;106.10;48.58;;;;;;;-7.00;75.07;101258.78;5068583;28;20086;-21
2022/01/24 05:47:09;;;;;;;70.40;33.38;;;;;;;-6.85;74.76;101264.94;5068076;28;20021;-21
2022/01/24 05:49:34;;;;;;;65.25;32.25;;;;;;;-6.38;73.54;101276.41;5068420;28;20051;-21
2022/01/24 05:51:59;;;;;;;65.18;33.67;;;;;;;-6.23;72.54;101266.97;5068088;28;20037;-22
2022/01/24 05:54:25;;;;;;;39.55;20.60;;;;;;;-5.96;70.68;101280.28;5068818;28;20051;-21
2022/01/24 05:56:50;;;;;;;43.25;21.52;;;;;;;-6.29;71.86;101286.34;5068596;28;20488;-21
2022/01/24 05:59:16;;;;;;;63.42;30.35;;;;;;;-6.16;71.23;101289.94;5068619;28;20405;-22
2022/01/24 06:01:41;;;;;;;64.63;33.13;;;;;;;-6.05;70.00;101289.38;5068572;28;20040;-21
2022/01/24 06:04:07;;;;;;;84.97;46.78;;;;;;;-5.44;69.75;101292.97;5068745;28;20827;-21
2022/01/24 06:06:32;;;;;;;96.70;47.17;;;;;;;-5.69;68.60;101301.28;5068335;28;20028;-21
2022/01/24 06:08:58;;;;;;;164.52;73.68;;;;;;;-5.35;68.14;101300.25;5068288;28;20385;-21
2022/01/24 06:11:24;;;;;;;128.18;60.65;;;;;;;-5.45;69.64;101299.94;5068506;28;20032;-21
2022/01/24 06:13:51;;;;;;;167.43;71.75;;;;;;;-5.81;69.53;101279.41;5068019;28;20064;-22
2022/01/24 06:16:16;;;;;;;168.43;72.30;;;;;;;-5.56;70.12;101280.66;5068238;28;20035;-21
2022/01/24 06:18:42;;;;;;;162.63;74.13;;;;;;;-6.17;71.67;101270.09;5068152;28;20408;-21
2022/01/24 06:21:07;;;;;;;143.68;68.32;;;;;;;-6.39;73.43;101305.91;5068000;28;20032;-21
2022/01/24 06:23:33;;;;;;;94.97;48.75;;;;;;;-6.51;72.74;101308.19;5068332;28;20021;-23
2022/01/24 06:25:58;;;;;;;99.07;47.80;;;;;;;-6.01;72.96;101321.22;5067853;28;20432;-21
2022/01/24 06:28:24;;;;;;;76.00;39.05;;;;;;;-5.72;72.15;101325.69;5068234;28;20024;-22
2022/01/24 06:30:49;;;;;;;97.85;45.45;;;;;;;-5.37;71.82;101328.09;5067970;28;20059;-21
2022/01/24 06:33:15;;;;;;;64.80;35.08;;;;;;;-5.23;70.95;101339.50;5066700;28;20040;-22
2022/01/24 06:35:40;;;;;;;97.78;44.63;;;;;;;-5.32;70.63;101320.03;5067797;28;20036;-21
2022/01/24 06:38:05;;;;;;;69.45;39.28;;;;;;;-5.11;70.64;101338.81;5068261;28;20086;-21
2022/01/24 06:40:31;;;;;;;65.32;35.08;;;;;;;-5.45;69.70;101319.91;5067812;28;20045;-21
2022/01/24 06:42:57;;;;;;;68.82;33.38;;;;;;;-6.55;66.96;101347.38;5068105;28;20037;-21
2022/01/24 06:45:22;;;;;;;81.07;36.78;;;;;;;-6.77;68.83;101347.59;5067903;28;20036;-21
2022/01/24 06:47:47;;;;;;;89.25;42.50;;;;;;;-6.79;69.85;101337.28;5066050;28;20036;-21
2022/01/24 06:50:13;;;;;;;90.78;44.85;;;;;;;-6.44;70.89;101350.25;5067578;28;20036;-21
2022/01/24 06:52:38;;;;;;;83.05;39.95;;;;;;;-6.13;69.72;101365.09;5067740;28;20025;-20
2022/01/24 06:55:04;;;;;;;77.38;37.35;;;;;;;-5.78;68.77;101365.00;5067681;28;20027;-21
2022/01/24 06:57:30;;;;;;;67.20;32.28;;;;;;;-6.12;68.81;101366.78;5067731;28;20028;-21
2022/01/24 06:59:55;;;;;;;55.50;29.77;;;;;;;-6.11;69.28;101370.19;5067499;28;20569;-21
2022/01/24 07:02:20;;;;;;;47.83;24.80;;;;;;;-6.14;69.42;101339.22;5066145;28;20051;-22
2022/01/24 07:04:46;;;;;;;53.15;27.48;;;;;;;-5.84;69.30;101354.91;5067164;28;20028;-22
2022/01/24 07:07:12;;;;;;;54.25;30.10;;;;;;;-6.10;70.98;101353.72;5067670;28;20089;-21
2022/01/24 07:09:38;;;;;;;51.95;26.67;;;;;;;-5.22;70.01;101367.19;5065673;28;20067;-22
2022/01/24 07:12:04;;;;;;;47.05;24.33;;;;;;;-5.50;67.79;101350.50;5067200;28;20051;-21
2022/01/24 07:14:30;;;;;;;76.30;36.42;;;;;;;-5.51;67.69;101361.81;5067173;28;20062;-21
2022/01/24 07:19:26;;;;;;;58.63;29.15;;;;;;;-5.75;67.88;101359.59;5066901;28;20114;-21
2022/01/24 07:21:52;;;;;;;60.00;30.73;;;;;;;-5.37;68.15;101374.91;5065614;28;20040;-21
2022/01/24 07:24:17;;;;;;;59.97;32.03;;;;;;;-5.02;67.06;101363.47;5066945;28;20039;-22
2022/01/24 07:26:42;;;;;;;59.67;31.70;;;;;;;-3.95;65.02;101365.00;5065821;28;20024;-22
2022/01/24 07:29:08;;;;;;;72.63;38.90;;;;;;;-3.71;64.60;101373.09;5067166;28;20036;-21
2022/01/24 07:31:35;;;;;;;77.25;38.92;;;;;;;-3.32;63.73;101357.69;5066860;28;20052;-21
2022/01/24 07:34:00;;;;;;;44.00;25.60;;;;;;;-2.42;63.28;101375.28;5066812;28;20506;-21
2022/01/24 07:36:26;;;;;;;51.60;28.35;;;;;;;-2.45;64.64;101378.09;5067047;28;20028;-22
2022/01/24 07:38:51;;;;;;;31.15;17.27;;;;;;;-3.68;64.74;101343.38;5067089;28;20051;-21
2022/01/24 07:41:23;;;;;;;48.25;25.63;;;;;;;-3.46;65.53;101390.66;5066867;28;20036;-21
2022/01/24 07:43:49;;;;;;;49.65;28.33;;;;;;;-2.42;63.86;101387.50;5065294;28;20552;-22
2022/01/24 07:46:14;;;;;;;31.02;17.45;;;;;;;-2.33;63.87;101392.13;5066679;28;20078;-22
2022/01/24 07:48:39;;;;;;;24.38;14.85;;;;;;;-2.43;65.14;101363.16;5066982;28;20047;-21
2022/01/24 07:51:05;;;;;;;37.03;21.92;;;;;;;-2.45;65.05;101365.03;5067015;28;20040;-23
2022/01/24 07:53:30;;;;;;;20.48;12.63;;;;;;;-1.46;62.27;101393.13;5067076;28;20036;-21
2022/01/24 07:55:57;;;;;;;19.85;11.57;;;;;;;-1.42;62.16;101399.81;5065261;28;20472;-21
2022/01/24 07:58:22;;;;;;;43.95;23.20;;;;;;;-1.58;61.15;101396.59;5066745;28;20040;-22
2022/01/24 08:00:48;;;;;;;27.05;14.10;;;;;;;-1.07;60.25;101391.22;5066837;28;20032;-22
2022/01/24 08:03:14;;;;;;;38.97;20.63;;;;;;;-1.19;61.66;101378.19;5066613;28;20039;-21
2022/01/24 08:05:40;;;;;;;39.70;20.88;;;;;;;-0.58;60.21;101383.34;5066875;28;20028;-20
2022/01/24 08:08:06;;;;;;;35.67;19.17;;;;;;;-0.75;60.90;101385.44;5065297;28;20079;-21
2022/01/24 08:10:31;;;;;;;42.22;20.17;;;;;;;-0.72;60.70;101392.22;5070569;28;20028;-20
2022/01/24 08:12:57;;;;;;;38.17;20.83;;;;;;;-0.01;59.03;101393.00;5070956;28;20064;-21
2022/01/24 08:15:24;;;;;;;59.05;26.55;;;;;;;0.09;58.91;101387.91;5069476;28;20404;-23
2022/01/24 08:17:49;;;;;;;31.92;16.70;;;;;;;0.07;58.22;101385.41;5070517;28;20626;-21
2022/01/24 08:20:14;;;;;;;29.02;15.57;;;;;;;-0.34;60.20;101376.28;5070525;28;20036;-21
2022/01/24 08:22:40;;;;;;;21.90;11.70;;;;;;;0.09;60.15;101377.41;5071037;28;20388;-21
2022/01/24 08:25:07;;;;;;;24.00;13.15;;;;;;;0.52;58.34;101405.56;5070424;28;20045;-21
2022/01/24 08:27:33;;;;;;;38.72;20.33;;;;;;;0.08;59.56;101396.72;5070665;28;20044;-21
2022/01/24 08:29:58;;;;;;;26.58;14.32;;;;;;;0.58;58.69;101391.94;5070362;28;20071;-22
2022/01/24 08:32:24;;;;;;;20.13;11.10;;;;;;;-0.34;60.60;101389.38;5070808;28;20186;-22
2022/01/24 08:34:49;;;;;;;18.92;11.48;;;;;;;-0.98;61.67;101402.84;5070791;28;20408;-21
2022/01/24 08:37:15;;;;;;;24.65;12.52;;;;;;;-1.37;63.29;101386.38;5070316;28;20028;-21
2022/01/24 08:39:41;;;;;;;25.58;14.57;;;;;;;-1.57;64.29;101390.44;5070311;28;20028;-21
2022/01/24 08:47:19;;;;;;;23.85;12.63;;;;;;;-0.63;63.63;101396.81;5070110;28;20051;-21
2022/01/24 08:49:44;;;;;;;21.25;10.70;;;;;;;-0.54;63.15;101429.34;5070209;28;20028;-21
2022/01/24 08:52:10;;;;;;;17.35;9.52;;;;;;;-0.32;61.35;101410.25;5070107;28;20040;-21
2022/01/24 08:54:35;;;;;;;14.90;9.05;;;;;;;0.26;57.60;101405.78;5052092;28;20086;-21
2022/01/24 08:57:01;;;;;;;22.05;12.05;;;;;;;0.73;54.48;101414.34;5069684;28;20419;-20
2022/01/24 08:59:26;;;;;;;18.27;11.40;;;;;;;1.32;55.25;101425.44;5068324;28;20044;-21
2022/01/24 09:01:52;;;;;;;14.75;8.50;;;;;;;1.22;53.55;101414.00;5069471;28;20032;-21
2022/01/24 09:04:18;;;;;;;16.42;9.35;;;;;;;1.83;53.06;101443.13;5069845;28;20029;-22
2022/01/24 09:06:43;;;;;;;15.38;8.50;;;;;;;1.63;55.15;101441.31;5069664;28;20036;-21
2022/01/24 09:09:09;;;;;;;13.90;7.85;;;;;;;1.17;54.84;101438.03;5069532;28;20044;-22
2022/01/24 09:11:35;;;;;;;12.68;7.25;;;;;;;1.23;53.25;101440.16;5069610;28;20028;-21
2022/01/24 09:14:02;;;;;;;15.50;9.00;;;;;;;0.47;56.04;101428.69;5069269;28;20032;-21
2022/01/24 09:16:27;;;;;;;18.88;9.50;;;;;;;0.60;57.14;101432.03;5069752;28;20694;-21
2022/01/24 09:18:53;;;;;;;25.48;12.25;;;;;;;0.48;57.30;101399.72;5068092;28;20127;-21
2022/01/24 09:21:19;;;;;;;19.63;10.60;;;;;;;0.57;55.81;101425.25;5068367;28;20074;-22
2022/01/24 09:23:44;;;;;;;22.30;13.00;;;;;;;0.12;57.87;101429.63;5067737;28;20041;-21
2022/01/24 09:26:10;;;;;;;22.23;13.05;;;;;;;0.56;56.84;101435.88;5069167;28;20058;-22
2022/01/24 09:28:35;;;;;;;20.83;11.63;;;;;;;0.12;57.03;101422.63;5069220;28;20044;-21
2022/01/24 09:31:01;;;;;;;27.35;15.90;;;;;;;0.26;57.49;101411.03;5067947;28;20040;-21
2022/01/24 09:33:26;;;;;;;25.05;14.07;;;;;;;0.58;57.73;101415.56;5067833;28;20456;-21
2022/01/24 09:35:53;;;;;;;22.17;10.70;;;;;;;0.53;56.24;101422.97;5069352;28;20102;-22
2022/01/24 09:38:20;;;;;;;16.27;10.35;;;;;;;0.45;54.29;101414.84;5069139;28;20025;-21
2022/01/24 09:40:46;;;;;;;17.23;9.98;;;;;;;0.75;54.42;101436.06;5069077;28;20368;-21
2022/01/24 09:43:11;;;;;;;18.60;10.48;;;;;;;0.74;53.07;101431.78;5068853;28;20650;-21
2022/01/24 09:45:37;;;;;;;18.60;10.15;;;;;;;0.66;53.22;101428.09;5068841;28;20028;-21
2022/01/24 09:48:03;;;;;;;17.30;9.95;;;;;;;0.59;53.36;101427.72;5068856;28;20028;-22
2022/01/24 09:50:28;;;;;;;16.88;9.38;;;;;;;0.52;53.01;101431.81;5069171;28;20028;-21
2022/01/24 09:52:54;;;;;;;17.45;10.73;;;;;;;0.88;53.01;101440.34;5069025;28;20028;-21
2022/01/24 09:55:20;;;;;;;16.02;9.55;;;;;;;0.59;53.83;101418.09;5067623;28;20040;-21
2022/01/24 09:57:47;;;;;;;19.80;10.23;;;;;;;0.30;55.13;101422.97;5066866;28;20040;-21
2022/01/24 10:00:14;;;;;;;18.27;10.18;;;;;;;0.69;54.37;101423.44;5067695;28;20033;-21
2022/01/24 10:02:39;;;;;;;15.45;8.55;;;;;;;0.83;53.17;101413.63;5068553;28;20028;-22
2022/01/24 10:05:14;;;;;;;16.15;8.85;;;;;;;1.06;53.40;101436.25;5067434;28;20036;-22
2022/01/24 10:07:40;;;;;;;17.40;9.43;;;;;;;0.73;53.28;101429.28;5068583;28;20032;-22
2022/01/24 10:10:05;;;;;;;16.33;9.10;;;;;;;0.72;53.51;101438.13;5068252;28;20064;-22
2022/01/24 10:16:24;;;;;;;15.32;8.77;;;;;;;1.24;52.96;101419.97;5068297;28;20093;-21
2022/01/24 10:18:04;;;;;;;19.48;9.68;;;;;;;1.48;50.76;101425.84;5068006;28;20166;-21
2022/01/24 10:20:32;;;;;;;15.48;9.10;;;;;;;1.03;51.60;101398.91;5066529;28;20058;-21
2022/01/24 10:23:17;;;;;;;17.10;9.05;;;;;;;1.54;50.09;101425.34;5068200;28;20468;-22
2022/01/24 10:25:49;;;;;;;14.98;8.55;;;;;;;1.68;49.40;101426.03;5066412;28;20413;-23
2022/01/24 10:28:23;;;;;;;14.65;7.93;;;;;;;1.69;47.34;101406.63;5068168;28;20025;-21
2022/01/24 10:31:09;;;;;;;13.75;7.22;;;;;;;1.84;47.08;101430.81;5067993;28;20066;-22
2022/01/24 10:34:35;;;;;;;17.40;9.75;;;;;;;2.36;47.08;101421.13;5067975;28;20151;-21
2022/01/24 10:36:56;;;;;;;25.95;12.60;;;;;;;2.66;47.33;101420.28;5065005;28;20055;-22
2022/01/24 10:39:32;;;;;;;19.38;11.73;;;;;;;3.19;46.53;101417.34;5067815;28;20067;-21
2022/01/24 10:44:52;;;;;;;30.98;16.77;;;;;;;2.10;47.62;101386.53;5067879;28;20474;-21
2022/01/24 10:47:27;;;;;;;23.77;13.63;;;;;;;2.32;47.31;101428.47;5067774;28;20090;-21
2022/01/24 10:49:52;;;;;;;16.15;8.85;;;;;;;1.77;48.31;101404.19;5066187;28;20063;-21
2022/01/24 10:52:29;;;;;;;166.43;77.95;;;;;;;5.87;50.34;101414.91;5067828;28;20058;-21
2022/01/24 10:55:17;;;;;;;116.32;65.90;;;;;;;11.45;38.27;101426.72;5067674;28;20032;-21
2022/01/24 10:57:45;;;;;;;24.30;14.32;;;;;;;7.42;33.09;101425.31;5067746;28;20064;-21
2022/01/24 11:00:20;;;;;;;53.92;43.17;;;;;;;5.23;36.42;101418.50;5067280;28;20043;-21
2022/01/24 11:02:47;;;;;;;28.50;17.73;;;;;;;4.12;38.28;101416.84;5067762;28;20488;-21
2022/01/24 11:05:12;;;;;;;98.57;64.63;;;;;;;3.57;40.54;101410.41;5049267;28;20031;-21
2022/01/24 11:07:51;;;;;;;40.70;25.95;;;;;;;3.11;40.20;101421.66;5067366;28;20032;-22
2022/01/24 11:10:16;;;;;;;22.50;14.25;;;;;;;2.75;42.36;101416.84;5067176;28;20146;-21
2022/01/24 11:12:42;;;;;;;19.90;11.65;;;;;;;2.73;42.55;101418.78;5067096;28;20501;-21
2022/01/24 11:15:10;;;;;;;36.33;26.25;;;;;;;2.34;44.65;101425.72;5049177;28;20033;-20
2022/01/24 11:17:35;;;;;;;59.00;33.58;;;;;;;2.27;46.87;101422.78;5066014;28;20083;-20
2022/01/24 11:20:02;;;;;;;28.95;23.75;;;;;;;1.95;44.35;101410.53;5049121;28;20476;-21
2022/01/24 11:22:30;;;;;;;82.25;47.35;;;;;;;1.79;44.96;101395.22;5067369;28;20086;-21
2022/01/24 11:25:00;;;;;;;17.95;10.32;;;;;;;1.66;43.98;101412.16;5065420;28;20136;-21
2022/01/24 11:27:26;;;;;;;19.65;11.10;;;;;;;1.32;46.36;101407.03;5067378;28;20038;-21
2022/01/24 11:29:54;;;;;;;38.92;24.77;;;;;;;1.72;45.40;101414.28;5067309;28;20964;-22
2022/01/24 11:32:28;;;;;;;15.23;8.73;;;;;;;1.60;43.67;101414.31;5067126;28;20032;-22
2022/01/24 11:34:55;;;;;;;56.13;29.55;;;;;;;1.57;45.11;101414.59;5067041;28;20255;-21
2022/01/24 11:37:43;;;;;;;349.20;198.02;;;;;;;1.71;43.69;101425.75;5067282;28;20070;-21
2022/01/24 11:40:13;;;;;;;69.95;40.40;;;;;;;1.37;44.00;101391.75;5067177;28;20081;-21
2022/01/24 11:42:40;;;;;;;50.92;29.10;;;;;;;1.52;45.43;101395.72;5067166;28;20032;-21
2022/01/24 11:45:14;;;;;;;119.32;70.68;;;;;;;1.36;44.81;101398.78;5064814;28;20029;-21
2022/01/24 11:47:41;;;;;;;39.08;26.55;;;;;;;1.74;43.79;101400.03;5067048;28;20033;-21
2022/01/24 11:50:30;;;;;;;26.20;16.65;;;;;;;2.09;43.06;101408.56;5065250;28;20028;-20
2022/01/24 11:52:56;;;;;;;40.95;33.97;;;;;;;2.55;42.92;101409.84;5067073;28;20035;-21
2022/01/24 11:55:34;;;;;;;37.55;29.50;;;;;;;2.57;41.98;101405.28;5066846;28;20032;-21
2022/01/24 11:58:06;;;;;;;36.08;29.70;;;;;;;2.10;41.23;101403.13;5066738;28;20136;-21
2022/01/24 12:00:39;;;;;;;36.67;22.20;;;;;;;1.61;42.27;101407.25;5066694;28;20029;-21
2022/01/24 12:03:23;;;;;;;19.08;15.45;;;;;;;1.22;44.07;101408.75;5067139;28;20032;-21
2022/01/24 12:05:53;;;;;;;16.38;12.05;;;;;;;1.40;42.83;101388.84;5066553;28;20029;-22
2022/01/24 12:08:34;;;;;;;33.35;25.67;;;;;;;1.60;42.65;101416.13;5066940;28;20484;-21
2022/01/24 12:11:26;;;;;;;27.70;16.13;;;;;;;1.84;42.67;101394.84;5065399;28;20032;-22
2022/01/24 12:14:01;;;;;;;30.13;24.60;;;;;;;1.56;44.59;101414.72;5065169;28;20499;-21
2022/01/24 12:16:41;;;;;;;30.90;25.85;;;;;;;1.54;45.49;101419.25;5066767;28;20025;-22
2022/01/24 12:19:07;;;;;;;19.23;12.43;;;;;;;1.51;44.84;101388.81;5066801;28;20032;-21
2022/01/24 12:21:34;;;;;;;39.42;26.00;;;;;;;1.75;44.35;101416.63;5066401;28;20035;-21
2022/01/24 12:24:09;;;;;;;36.15;22.15;;;;;;;1.41;44.69;101435.22;5066242;28;20041;-22
2022/01/24 12:26:42;;;;;;;38.83;29.45;;;;;;;0.52;44.99;101421.31;5066639;28;20056;-21
2022/01/24 12:29:09;;;;;;;19.70;11.00;;;;;;;0.35;45.39;101399.84;5066362;28;20020;-21
2022/01/24 12:31:37;;;;;;;23.83;19.08;;;;;;;0.58;44.52;101426.91;5066595;28;20055;-20
2022/01/24 12:34:10;;;;;;;37.47;28.55;;;;;;;0.53;44.74;101402.81;5065942;28;20122;-21
2022/01/24 12:36:39;;;;;;;114.93;75.68;;;;;;;0.63;45.02;101428.34;5066554;28;20089;-22
2022/01/24 12:39:11;;;;;;;129.98;103.88;;;;;;;0.98;45.11;101422.91;5066382;28;20097;-21
2022/01/24 12:41:45;;;;;;;38.15;34.25;;;;;;;1.09;44.18;101422.88;5066384;28;20107;-21
2022/01/24 12:46:17;;;;;;;89.97;54.63;;;;;;;1.05;43.96;101424.09;5065026;28;20145;-21
2022/01/24 12:46:56;;;;;;;105.30;68.00;;;;;;;1.30;44.60;101435.25;5064956;28;20043;-23
2022/01/24 12:49:21;;;;;;;50.72;33.42;;;;;;;1.48;44.45;101433.75;5066314;28;20416;-21
2022/01/24 12:51:49;;;;;;;149.98;88.07;;;;;;;1.26;45.29;101432.03;5066085;28;20032;-21
2022/01/24 12:54:16;;;;;;;46.35;29.05;;;;;;;0.97;44.99;101447.50;5064856;28;20028;-21
2022/01/24 12:56:42;;;;;;;122.45;80.35;;;;;;;0.82;44.38;101407.56;5068301;28;20066;-21